Latest Weather Observations for Blackall

IDQ60801

Issued at 2:05 pm EST Monday 28 July 2014 (issued every 30 minutes, with the page automatically refreshed every 10 minutes)

About weather observations | Map of weather stations | Latest weather observations for QLD | Other Formats
Station Details ID: 036034 Name: BLACKALL AIRPORT Lat: -24.43 Lon: 145.43 Height: 281.3 m
Data from the previous 72 hours. | See also: Recent months at Blackall
Date/Time
EST
Temp
°C
App
Temp
°C
Dew
Point
Rel
Hum
%
Delta-T
°C
Wind Press
QNH
hPa
Press
MSL
hPa
Rain
since 9 am
mm
Dir
 
Spd
km/h
Gust
km/h
Spd
kts
Gust
kts
28/02:00pm 26.4 23.3 3.6 23 11.4 W 9 17 5 9 1020.1 1019.9 0.0
28/01:30pm 25.9 23.2 3.8 24 11.1 WNW 7 17 4 9 1020.6 - 0.0
28/01:00pm 25.4 22.6 3.4 24 10.9 W 7 19 4 10 1021.1 1020.9 0.0
28/12:30pm 25.8 21.3 4.3 25 10.9 NNW 17 24 9 13 1021.9 - 0.0
28/12:00pm 25.3 22.3 3.9 25 10.7 NNW 9 15 5 8 1022.6 1022.4 0.0
28/11:30am 25.0 21.8 5.2 28 10.2 NNW 11 20 6 11 1023.0 - 0.0
28/11:00am 24.4 21.0 5.7 30 9.6 N 13 19 7 10 1023.5 1023.3 0.0
28/10:30am 22.8 19.3 5.3 32 8.9 NNE 13 19 7 10 1023.9 - 0.0
28/10:00am 21.2 16.7 4.3 33 8.3 NE 17 24 9 13 1024.3 1024.1 0.0
28/09:30am 19.4 15.2 3.6 35 7.6 NE 15 22 8 12 1024.2 - 0.0
28/09:00am 17.8 14.0 3.7 39 6.7 ENE 13 19 7 10 1024.0 1023.8 0.0
28/08:30am 15.4 11.9 3.5 45 5.5 E 11 15 6 8 1023.8 - 0.0
28/08:00am 12.9 9.5 3.8 54 4.1 E 11 15 6 8 1023.4 1023.2 0.0
28/07:30am 9.0 6.0 2.3 63 2.9 ESE 7 9 4 5 1023.3 - 0.0
28/07:00am 8.5 5.1 1.9 63 2.8 ESE 9 11 5 6 1023.0 1022.8 0.0
28/06:30am 9.2 5.9 2.3 62 3.0 ESE 9 9 5 5 1022.8 - 0.0
28/06:00am 8.6 5.2 1.7 62 2.9 ESE 9 13 5 7 1022.5 1022.3 0.0
28/05:30am 9.5 6.5 1.9 59 3.2 SE 7 9 4 5 1022.3 - 0.0
28/05:00am 9.9 6.9 2.0 58 3.4 SE 7 9 4 5 1022.1 1021.8 0.0
28/04:30am 10.0 6.6 1.6 56 3.6 ESE 9 11 5 6 1022.2 - 0.0
28/04:00am 10.7 7.7 2.0 55 3.7 ESE 7 9 4 5 1022.3 1022.1 0.0
28/03:30am 10.9 8.0 1.7 53 3.9 ESE 6 9 3 5 1022.2 - 0.0
28/03:00am 11.1 7.7 1.6 52 4.1 ESE 9 11 5 6 1022.3 1022.1 0.0
28/02:30am 11.8 8.9 1.4 49 4.5 SE 6 9 3 5 1022.3 - 0.0
28/02:00am 12.8 9.0 1.5 46 4.9 ESE 11 13 6 7 1022.5 1022.3 0.0
28/01:30am 14.5 10.3 1.4 41 5.8 ESE 13 19 7 10 1022.6 - 0.0
28/01:00am 14.9 10.8 2.1 42 5.7 ESE 13 17 7 9 1022.6 1022.4 0.0
28/12:30am 14.6 10.5 2.5 44 5.5 SE 13 17 7 9 1022.7 - 0.0
28/12:00am 14.0 10.1 3.5 49 4.8 SE 13 17 7 9 1022.9 1022.7 0.0
 
Date/Time
EST
Temp
°C
App
Temp
°C
Dew
Point
Rel
Hum
%
Delta-T
°C
Wind Press
QNH
hPa
Press
MSL
hPa
Rain
since 9 am
mm
Dir
 
Spd
km/h
Gust
km/h
Spd
kts
Gust
kts
27/11:30pm 12.7 9.7 4.2 56 3.9 ESE 9 11 5 6 1023.0 - 0.0
27/11:00pm 13.4 12.1 4.3 54 4.2 CALM 0 6 0 3 1023.2 1023.0 0.0
27/10:30pm 15.6 12.7 4.6 48 5.2 SE 9 13 5 7 1023.3 - 0.0
27/10:00pm 16.7 13.5 5.0 46 5.6 SSE 11 13 6 7 1023.3 1023.1 0.0
27/09:30pm 16.9 13.3 5.2 46 5.7 SSE 13 15 7 8 1023.2 - 0.0
27/09:00pm 14.4 11.6 5.2 54 4.4 SSE 9 11 5 6 1023.2 1023.0 0.0
27/08:30pm 13.8 11.9 3.0 48 4.9 SSE 2 7 1 4 1023.1 - 0.0
27/08:00pm 15.5 13.3 3.3 44 5.6 S 4 6 2 3 1022.8 1022.6 0.0
27/07:30pm 16.7 14.1 3.0 40 6.4 SW 6 13 3 7 1022.7 - 0.0
27/07:00pm 17.4 15.9 3.0 38 6.7 CALM 0 0 0 0 1022.3 1022.1 0.0
27/06:30pm 18.9 16.5 1.9 32 7.8 WSW 4 6 2 3 1021.9 - 0.0
27/06:00pm 22.2 20.6 2.3 27 9.5 CALM 0 0 0 0 1021.7 1021.4 0.0
27/05:30pm 24.0 21.0 2.2 24 10.5 SW 7 11 4 6 1021.5 - 0.0
27/05:00pm 24.8 21.4 1.7 22 11.1 S 9 17 5 9 1021.4 1021.2 0.0
27/04:30pm 25.3 22.0 2.7 23 11.1 SSE 9 19 5 10 1021.3 - 0.0
27/04:00pm 25.4 21.4 2.8 23 11.1 S 13 20 7 11 1021.3 1021.1 0.0
27/03:30pm 25.8 21.2 1.8 21 11.6 SSW 15 24 8 13 1021.3 - 0.0
27/03:00pm 25.6 21.8 4.1 25 10.8 S 13 26 7 14 1021.7 1021.4 0.0
27/02:30pm 25.9 22.7 7.0 30 10.1 WSW 13 20 7 11 1022.0 - 0.0
27/02:00pm 25.3 22.9 7.0 31 9.7 SW 9 19 5 10 1022.4 1022.2 0.0
27/01:30pm 25.4 22.8 6.1 29 10.1 S 9 19 5 10 1022.9 - 0.0
27/01:00pm 24.8 23.4 11.0 42 7.8 WSW 9 15 5 8 1023.5 1023.3 0.0
27/12:30pm 23.8 23.1 12.1 48 6.7 S 7 15 4 8 1024.2 - 0.0
27/12:00pm 23.2 22.8 12.5 51 6.2 SW 6 9 3 5 1024.9 1024.7 0.0
27/11:30am 21.9 21.0 11.3 51 6.0 SSW 7 13 4 7 1025.5 - 0.0
27/11:00am 21.8 21.9 11.5 52 5.8 WNW 2 9 1 5 1025.8 1025.6 0.0
27/10:30am 20.3 19.7 11.8 58 4.8 SE 6 9 3 5 1026.0 - 0.0
27/10:00am 19.0 18.6 12.3 65 3.8 SE 6 9 3 5 1026.3 1026.1 0.0
27/09:30am 17.6 16.7 12.7 73 2.8 ESE 9 11 5 6 1026.3 - 0.0
27/09:00am 15.8 14.5 12.5 81 1.8 SE 11 13 6 7 1026.1 1025.9 0.2
27/08:30am 13.8 13.1 12.0 89 1.0 ESE 7 11 4 6 1026.1 - 0.2
27/08:00am 11.8 11.9 11.6 99 0.1 S 2 7 1 4 1025.7 1025.5 0.2
27/07:30am 9.7 8.8 9.2 97 0.3 SE 4 7 2 4 1025.4 - 0.2
27/07:00am 9.2 7.6 8.1 93 0.5 SE 6 6 3 3 1025.1 1024.9 0.2
27/06:30am 9.9 9.0 9.3 96 0.3 SSE 4 6 2 3 1024.9 - 0.2
27/06:00am 10.5 9.2 9.9 96 0.3 SE 7 9 4 5 1024.6 1024.4 0.2
27/05:30am 10.9 9.7 10.4 97 0.3 SSE 7 9 4 5 1024.4 - 0.2
27/05:00am 11.2 9.4 11.0 99 0.1 SE 11 11 6 6 1024.2 1024.0 0.2
27/04:30am 10.9 9.7 10.3 96 0.3 ESE 7 9 4 5 1024.1 - 0.2
27/04:00am 11.5 10.1 10.9 96 0.3 SE 9 11 5 6 1024.1 1023.9 0.2
27/03:30am 11.5 10.0 10.7 95 0.4 SE 9 11 5 6 1024.2 - 0.2
27/03:00am 11.7 10.1 11.4 98 0.2 SSE 11 13 6 7 1024.4 1024.2 0.2
27/02:30am 10.8 9.4 9.4 91 0.7 SSE 7 7 4 4 1024.5 - 0.2
27/02:00am 11.0 9.7 9.9 93 0.6 S 7 9 4 5 1024.6 1024.4 0.2
27/01:30am 10.7 9.3 9.0 89 0.9 S 6 7 3 4 1024.9 - 0.2
27/01:00am 11.0 9.4 8.8 86 1.1 SSE 7 7 4 4 1025.0 1024.8 0.2
27/12:30am 11.6 11.4 9.0 84 1.3 CALM 0 0 0 0 1025.2 - 0.2
27/12:00am 12.3 12.2 9.5 83 1.4 CALM 0 0 0 0 1025.4 1025.2 0.2
 
Date/Time
EST
Temp
°C
App
Temp
°C
Dew
Point
Rel
Hum
%
Delta-T
°C
Wind Press
QNH
hPa
Press
MSL
hPa
Rain
since 9 am
mm
Dir
 
Spd
km/h
Gust
km/h
Spd
kts
Gust
kts
26/11:30pm 13.4 13.3 9.6 78 2.0 CALM 0 0 0 0 1025.5 - 0.2
26/11:00pm 15.3 14.4 11.3 77 2.2 ENE 7 9 4 5 1025.5 1025.3 0.2
26/10:30pm 15.3 13.9 10.9 75 2.4 ENE 9 13 5 7 1025.5 - 0.2
26/10:00pm 15.5 13.8 11.1 75 2.4 E 11 13 6 7 1025.6 1025.4 0.2
26/09:30pm 14.9 13.7 10.3 74 2.4 ESE 7 9 4 5 1025.6 - 0.2
26/09:00pm 15.0 13.7 10.0 72 2.6 ENE 7 9 4 5 1025.4 1025.2 0.2
26/08:30pm 16.3 14.6 11.2 72 2.8 NNE 11 17 6 9 1025.2 - 0.2
26/08:00pm 16.1 15.2 10.8 71 2.8 NE 6 7 3 4 1024.7 1024.5 0.2
26/07:30pm 17.6 16.3 11.4 67 3.4 SE 9 13 5 7 1024.2 - 0.2
26/07:00pm 18.2 17.0 11.5 65 3.7 SE 9 11 5 6 1024.1 1023.9 0.2
26/06:30pm 18.7 17.8 10.8 60 4.3 E 6 7 3 4 1023.6 - 0.2
26/06:00pm 20.2 18.0 10.9 55 5.1 S 13 17 7 9 1023.2 1023.0 0.2
26/05:30pm 20.7 18.6 12.4 59 4.7 SSE 15 20 8 11 1023.0 - 0.2
26/05:00pm 21.4 16.9 12.5 57 5.1 WSW 28 35 15 19 1023.2 1023.0 0.2
26/04:57pm 22.4 17.7 12.1 52 5.9 WSW 28 35 15 19 1023.0 - 0.2
26/04:30pm 24.7 23.5 11.6 44 7.5 SW 9 13 5 7 1022.4 - 0.2
26/04:00pm 25.0 24.3 11.9 44 7.5 SW 7 11 4 6 1022.4 1022.2 0.2
26/03:30pm 25.2 24.7 12.1 44 7.6 SW 6 11 3 6 1022.4 - 0.2
26/03:00pm 25.0 23.6 12.2 44 7.4 SW 11 17 6 9 1022.5 1022.3 0.2
26/02:30pm 24.5 23.0 11.8 45 7.3 W 11 17 6 9 1022.7 - 0.2
26/02:00pm 25.9 24.2 12.4 43 7.9 NNW 13 22 7 12 1022.9 1022.7 0.2
26/01:30pm 24.6 23.7 12.5 46 7.0 WSW 9 17 5 9 1023.4 - 0.2
26/01:00pm 24.2 22.4 12.2 47 6.9 NNW 13 24 7 13 1023.7 1023.5 0.2
26/12:30pm 23.9 22.2 12.5 49 6.6 NNW 13 22 7 12 1024.2 - 0.2
26/12:00pm 23.0 21.3 12.3 51 6.1 N 13 22 7 12 1024.9 1024.7 0.2
26/11:30am 23.0 20.8 13.2 54 5.7 NNW 17 22 9 12 1025.7 - 0.2
26/11:00am 21.6 19.3 11.9 54 5.5 NNE 15 19 8 10 1026.0 1025.8 0.2
26/10:30am 20.3 18.4 11.8 58 4.8 NNE 13 17 7 9 1026.3 - 0.0
26/10:00am 19.7 18.4 12.5 63 4.1 NE 11 17 6 9 1026.2 1026.0 0.0
26/09:30am 18.5 17.9 11.8 65 3.7 E 6 11 3 6 1026.4 - 0.0
26/09:00am 17.8 16.9 12.5 71 3.0 ENE 9 11 5 6 1025.8 1025.6 1.0
26/08:30am 17.0 15.3 12.3 74 2.6 NE 13 15 7 8 1025.4 - 1.0
26/08:00am 16.7 16.2 12.8 78 2.2 ESE 7 11 4 6 1025.6 1025.4 1.0
26/07:30am 16.0 15.2 12.9 82 1.7 NE 9 13 5 7 1024.8 - 1.0
26/07:00am 16.3 14.7 12.8 80 2.0 NE 13 17 7 9 1024.6 1024.4 1.0
26/06:30am 16.6 13.7 12.9 79 2.1 NNE 20 28 11 15 1024.3 - 1.0
26/06:00am 17.9 15.6 11.9 68 3.3 WNW 15 22 8 12 1025.1 1024.9 0.2
26/05:30am 17.8 15.5 11.6 67 3.4 NNE 15 22 8 12 1023.8 - 0.2
26/05:00am 18.3 15.6 11.8 66 3.6 NNE 17 26 9 14 1023.2 1023.0 0.2
26/04:30am 18.2 16.0 12.0 67 3.5 NNE 15 20 8 11 1023.2 - 0.2
26/04:00am 17.5 15.7 12.2 71 3.0 NNE 13 20 7 11 1023.1 1022.9 0.2
26/03:30am 17.0 16.6 12.5 75 2.5 N 6 13 3 7 1023.3 - 0.2
26/03:00am 16.8 16.2 12.3 75 2.5 N 7 9 4 5 1023.4 1023.2 0.2
26/02:30am 16.3 16.4 13.8 85 1.4 ENE 6 7 3 4 1023.4 - 0.2
26/02:00am 16.0 15.8 13.5 85 1.4 E 7 9 4 5 1023.1 1022.9 0.2
26/01:30am 15.9 16.8 13.0 83 1.6 CALM 0 6 0 3 1023.4 - 0.2
26/01:00am 16.4 16.3 13.3 82 1.8 SSW 6 7 3 4 1023.4 1023.2 0.2
26/12:30am 16.6 15.6 13.3 81 1.9 ENE 11 13 6 7 1023.3 - 0.2
26/12:00am 17.3 16.4 13.8 80 2.0 E 11 13 6 7 1023.3 1023.1 0.2
 
Date/Time
EST
Temp
°C
App
Temp
°C
Dew
Point
Rel
Hum
%
Delta-T
°C
Wind Press
QNH
hPa
Press
MSL
hPa
Rain
since 9 am
mm
Dir
 
Spd
km/h
Gust
km/h
Spd
kts
Gust
kts
25/11:30pm 18.6 17.8 12.8 69 3.3 SE 9 13 5 7 1023.7 - 0.0
25/11:00pm 20.3 19.4 11.5 57 4.9 SSE 7 11 4 6 1023.8 1023.6 0.0
25/10:30pm 20.5 16.8 11.4 56 5.1 SSW 22 28 12 15 1023.5 - 0.0
25/10:00pm 20.5 19.7 8.2 45 6.5 E 2 9 1 5 1023.3 1023.1 0.0
25/09:30pm 21.5 20.0 8.4 43 7.0 ENE 6 7 3 4 1023.0 - 0.0
25/09:00pm 22.4 22.2 8.9 42 7.3 CALM 0 7 0 4 1022.9 1022.7 0.0
25/08:30pm 22.1 20.5 8.6 42 7.2 SW 7 15 4 8 1022.6 - 0.0
25/08:00pm 21.2 18.6 7.8 42 7.0 NE 11 15 6 8 1022.1 1021.8 0.0
25/07:30pm 21.4 18.9 8.0 42 7.1 ENE 11 11 6 6 1021.9 - 0.0
25/07:00pm 21.9 19.1 7.0 38 7.7 ENE 11 13 6 7 1021.4 1021.2 0.0
25/06:30pm 22.7 20.6 6.5 35 8.4 NE 7 9 4 5 1021.0 - 0.0
25/06:00pm 24.2 22.3 7.4 34 8.9 NNE 7 9 4 5 1020.7 1020.5 0.0
25/05:30pm 25.4 23.1 7.5 32 9.6 NNE 9 11 5 6 1020.4 - 0.0
25/05:00pm 25.9 23.1 7.0 30 10.0 NNE 11 15 6 8 1020.2 1020.0 0.0
25/04:30pm 26.2 23.6 7.7 31 10.0 NNE 11 17 6 9 1019.9 - 0.0
25/04:00pm 26.3 23.7 7.8 31 10.0 NNW 11 17 6 9 1019.7 1019.5 0.0
25/03:30pm 26.2 23.5 7.3 30 10.1 NE 11 17 6 9 1019.6 - 0.0
25/03:00pm 27.0 23.5 8.9 32 10.0 NNE 17 24 9 13 1019.7 1019.5 0.0
25/02:30pm 27.3 24.3 9.2 32 10.1 N 15 20 8 11 1019.8 - 0.0

Other Formats:

Comma delimited format used in spreadsheet applications
http://www.bom.gov.au/fwo/IDQ60801/IDQ60801.95351.axf

JavaScript Object Notation format (JSON) in row-major order
http://www.bom.gov.au/fwo/IDQ60801/IDQ60801.95351.json